Time;durP1;ratioP1;P1;durP2;ratioP2;P2;SDS_P1;SDS_P2;PMS_P1;PMS_P2;Temp;Humidity;BMP_temperature;BMP_pressure;BME280_temperature;BME280_humidity;BME280_pressure;Samples;Min_cycle;Max_cycle;Signal;HPM_P1;HPM_P2
2024/01/20 00:01:54;;;;;;;3.25;3.00;;;12.30;58.80;;;;;;5023459;28;20034;-80
2024/01/20 00:04:20;;;;;;;2.90;2.70;;;12.30;58.90;;;;;;4997940;28;20239;-80
2024/01/20 00:06:45;;;;;;;2.90;2.70;;;12.30;58.90;;;;;;5008065;28;20025;-79
2024/01/20 00:09:11;;;;;;;3.25;3.05;;;12.30;58.80;;;;;;4993728;28;20041;-80
2024/01/20 00:11:40;;;;;;;2.90;2.70;;;12.30;59.00;;;;;;5024070;28;20117;-80
2024/01/20 00:14:05;;;;;;;3.20;3.00;;;12.30;58.90;;;;;;5025465;28;20048;-80
2024/01/20 00:16:31;;;;;;;2.83;2.72;;;12.30;58.80;;;;;;5024117;28;20029;-80
2024/01/20 00:18:57;;;;;;;3.25;3.05;;;12.20;58.80;;;;;;5014485;28;20088;-80
2024/01/20 00:21:22;;;;;;;2.92;2.72;;;12.30;58.80;;;;;;5025905;28;20414;-80
2024/01/20 00:23:48;;;;;;;2.90;2.78;;;12.30;58.90;;;;;;5021964;28;20041;-79
2024/01/20 00:26:14;;;;;;;3.45;3.25;;;12.30;58.90;;;;;;5010364;28;20044;-80
2024/01/20 00:28:39;;;;;;;3.20;2.90;;;12.30;58.90;;;;;;5026588;28;20049;-79
2024/01/20 00:31:05;;;;;;;3.47;3.28;;;12.20;58.80;;;;;;5021764;28;20041;-80
2024/01/20 00:33:31;;;;;;;3.40;3.20;;;12.20;58.80;;;;;;5009003;28;20573;-80
2024/01/20 00:35:56;;;;;;;3.30;3.10;;;12.20;58.80;;;;;;5020634;28;20069;-80
2024/01/20 00:38:22;;;;;;;3.42;3.22;;;12.30;58.90;;;;;;5022878;28;20045;-79
2024/01/20 00:40:47;;;;;;;3.20;3.00;;;12.20;58.70;;;;;;5025695;28;20535;-79
2024/01/20 00:43:14;;;;;;;3.22;3.03;;;12.20;58.90;;;;;;5023407;28;20517;-80
2024/01/20 00:45:39;;;;;;;3.40;3.20;;;12.20;58.80;;;;;;4985084;28;20096;-79
2024/01/20 00:48:05;;;;;;;3.47;3.28;;;12.20;58.90;;;;;;5022184;28;20053;-80
2024/01/20 00:50:30;;;;;;;2.92;2.80;;;12.20;58.80;;;;;;5025026;28;20037;-79
2024/01/20 00:52:56;;;;;;;2.88;2.63;;;12.20;58.80;;;;;;5025015;28;20069;-80
2024/01/20 00:55:21;;;;;;;3.10;2.90;;;12.20;58.70;;;;;;5022193;28;20083;-79
2024/01/20 00:57:47;;;;;;;3.20;3.00;;;12.20;58.90;;;;;;5019662;28;20064;-79
2024/01/20 01:00:13;;;;;;;3.67;3.38;;;12.20;58.90;;;;;;5023242;28;20099;-79
2024/01/20 01:02:39;;;;;;;3.00;2.80;;;12.20;58.90;;;;;;5021545;28;20087;-79
2024/01/20 01:05:05;;;;;;;2.88;2.67;;;12.20;58.80;;;;;;5009649;28;20566;-79
2024/01/20 01:07:34;;;;;;;3.30;3.10;;;12.20;59.10;;;;;;5018868;28;20132;-80
2024/01/20 01:09:59;;;;;;;3.33;3.13;;;12.20;59.00;;;;;;5018635;28;20049;-80
2024/01/20 01:12:25;;;;;;;3.47;3.10;;;12.20;58.70;;;;;;5002454;28;20049;-79
2024/01/20 01:14:50;;;;;;;3.00;2.80;;;12.20;59.10;;;;;;5020990;28;20050;-79
2024/01/20 01:17:16;;;;;;;3.35;3.15;;;12.20;59.00;;;;;;5023155;28;20488;-79
2024/01/20 01:19:42;;;;;;;2.97;2.78;;;12.20;58.80;;;;;;5022478;28;20037;-79
2024/01/20 01:22:08;;;;;;;3.08;2.88;;;12.10;58.80;;;;;;5024814;28;20045;-80
2024/01/20 01:24:34;;;;;;;2.92;2.72;;;12.20;58.60;;;;;;5022931;28;20526;-79
2024/01/20 01:26:59;;;;;;;3.10;2.90;;;12.20;58.90;;;;;;5005132;28;20117;-79
2024/01/20 01:29:25;;;;;;;3.00;2.80;;;12.20;58.70;;;;;;5000975;28;20054;-80
2024/01/20 01:31:50;;;;;;;3.30;3.10;;;12.10;58.80;;;;;;5019009;28;20037;-80
2024/01/20 01:34:16;;;;;;;3.10;2.90;;;12.20;58.80;;;;;;5054507;28;20030;-79
2024/01/20 01:36:41;;;;;;;2.60;2.50;;;12.20;58.70;;;;;;5022785;28;20060;-79
2024/01/20 01:39:07;;;;;;;3.15;2.95;;;12.10;58.60;;;;;;4986982;28;20053;-79
2024/01/20 01:41:33;;;;;;;3.33;3.13;;;12.10;58.80;;;;;;5024692;28;20580;-79
2024/01/20 01:43:59;;;;;;;3.45;3.25;;;12.10;58.90;;;;;;5023789;28;20145;-78
2024/01/20 01:46:26;;;;;;;3.10;2.90;;;12.10;58.80;;;;;;5021495;28;20806;-79
2024/01/20 01:48:51;;;;;;;3.47;3.28;;;12.10;58.80;;;;;;5004226;28;20060;-78
2024/01/20 01:51:17;;;;;;;3.10;2.90;;;12.10;58.80;;;;;;5023248;28;20045;-79
2024/01/20 01:53:42;;;;;;;3.63;3.33;;;12.10;58.80;;;;;;5021673;28;20129;-79
2024/01/20 01:56:08;;;;;;;3.40;3.20;;;12.10;58.80;;;;;;5023697;28;20060;-79
2024/01/20 01:58:33;;;;;;;3.70;3.50;;;12.10;58.80;;;;;;4991199;28;20049;-79
2024/01/20 02:01:00;;;;;;;3.55;3.25;;;12.10;58.70;;;;;;5002286;28;20046;-79
2024/01/20 02:03:25;;;;;;;3.10;2.90;;;12.10;58.80;;;;;;5017918;28;20046;-79
2024/01/20 02:05:51;;;;;;;3.35;3.15;;;12.10;58.60;;;;;;5023076;28;20064;-79
2024/01/20 02:08:17;;;;;;;3.60;3.40;;;12.10;58.80;;;;;;5022175;28;20108;-79
2024/01/20 02:10:43;;;;;;;3.35;3.15;;;12.10;58.80;;;;;;5025586;28;20407;-79
2024/01/20 02:13:12;;;;;;;3.83;3.55;;;12.10;58.70;;;;;;5019222;28;20049;-79
2024/01/20 02:15:38;;;;;;;3.42;3.22;;;12.10;58.70;;;;;;4992782;28;20054;-79
2024/01/20 02:18:03;;;;;;;3.45;3.25;;;12.10;58.80;;;;;;4984177;28;20620;-79
2024/01/20 02:20:29;;;;;;;3.20;3.00;;;12.00;58.70;;;;;;5004281;28;20093;-79
2024/01/20 02:22:54;;;;;;;3.40;3.20;;;12.10;58.70;;;;;;5020771;28;20607;-78
2024/01/20 02:25:20;;;;;;;3.20;3.00;;;12.10;58.70;;;;;;5024581;28;20050;-79
2024/01/20 02:27:46;;;;;;;3.47;3.25;;;12.10;58.90;;;;;;4998600;28;20511;-78
2024/01/20 02:30:11;;;;;;;3.47;3.28;;;12.10;58.70;;;;;;5016027;28;20042;-79
2024/01/20 02:32:37;;;;;;;3.20;3.00;;;12.10;58.80;;;;;;5020864;28;20144;-79
2024/01/20 02:35:03;;;;;;;3.45;3.25;;;12.10;59.00;;;;;;5022702;28;20041;-79
2024/01/20 02:37:28;;;;;;;3.20;3.00;;;12.00;58.80;;;;;;5014672;28;20037;-79
2024/01/20 02:39:55;;;;;;;3.22;3.03;;;12.10;58.80;;;;;;5019338;28;20053;-79
2024/01/20 02:42:21;;;;;;;3.25;3.05;;;12.10;58.70;;;;;;5020363;28;20042;-79
2024/01/20 02:44:46;;;;;;;3.60;3.40;;;12.10;58.70;;;;;;5024777;28;20526;-79
2024/01/20 02:47:12;;;;;;;3.53;3.28;;;12.10;58.70;;;;;;5040768;28;20450;-79
2024/01/20 02:49:37;;;;;;;2.72;2.53;;;12.00;58.70;;;;;;5021779;28;20033;-79
2024/01/20 02:52:03;;;;;;;3.30;3.10;;;12.00;58.70;;;;;;5019784;28;20412;-80
2024/01/20 02:54:29;;;;;;;3.72;3.53;;;12.00;58.70;;;;;;5023555;28;20086;-80
2024/01/20 02:56:54;;;;;;;3.17;2.97;;;12.00;58.70;;;;;;5021041;28;20481;-79
2024/01/20 02:59:20;;;;;;;3.15;2.95;;;12.00;58.60;;;;;;5024088;28;20092;-79
2024/01/20 03:01:45;;;;;;;3.45;3.25;;;12.00;58.70;;;;;;5023280;28;20033;-79
2024/01/20 03:04:11;;;;;;;3.60;3.30;;;12.00;58.80;;;;;;5018680;28;20048;-79
2024/01/20 03:06:36;;;;;;;3.45;3.15;;;12.00;59.00;;;;;;5021174;28;20068;-79
2024/01/20 03:09:02;;;;;;;3.08;2.88;;;12.00;58.60;;;;;;5018838;28;20046;-79
2024/01/20 03:11:28;;;;;;;3.00;2.80;;;12.00;58.60;;;;;;5023872;28;20375;-79
2024/01/20 03:13:53;;;;;;;3.50;3.30;;;12.00;58.60;;;;;;5024444;28;20132;-78
2024/01/20 03:16:19;;;;;;;3.28;3.08;;;12.00;58.70;;;;;;5001520;28;20095;-79
2024/01/20 03:18:44;;;;;;;3.25;3.05;;;12.00;58.60;;;;;;5011324;28;20041;-79
2024/01/20 03:21:10;;;;;;;3.20;3.00;;;12.00;58.50;;;;;;5054986;28;20034;-79
2024/01/20 03:23:35;;;;;;;3.13;2.92;;;12.00;58.60;;;;;;5024957;28;20046;-79
2024/01/20 03:26:08;;;;;;;3.22;3.03;;;12.00;58.50;;;;;;5023415;28;20030;-79
2024/01/20 03:28:33;;;;;;;3.05;2.85;;;12.00;58.60;;;;;;5026310;28;20080;-80
2024/01/20 03:30:59;;;;;;;3.38;3.17;;;12.00;58.60;;;;;;5024340;28;20092;-79
2024/01/20 03:33:25;;;;;;;3.20;3.00;;;12.00;58.60;;;;;;5024661;28;20048;-79
2024/01/20 03:35:50;;;;;;;3.30;3.10;;;12.00;58.60;;;;;;5023963;28;20044;-78
2024/01/20 03:38:17;;;;;;;3.50;3.30;;;12.00;58.60;;;;;;5027695;28;20037;-79
2024/01/20 03:40:43;;;;;;;3.08;2.88;;;11.90;58.60;;;;;;5023445;28;20538;-79
2024/01/20 03:43:12;;;;;;;3.05;2.85;;;11.90;58.60;;;;;;5022849;28;20152;-80
2024/01/20 03:45:42;;;;;;;3.10;2.90;;;12.00;58.60;;;;;;5020521;28;20041;-79
2024/01/20 03:48:07;;;;;;;3.15;2.95;;;12.00;58.80;;;;;;5024815;28;20068;-79
2024/01/20 03:50:33;;;;;;;3.45;3.15;;;11.90;58.70;;;;;;5024845;28;20041;-79
2024/01/20 03:52:59;;;;;;;3.25;3.05;;;12.00;58.50;;;;;;5026780;28;20123;-79
2024/01/20 03:55:24;;;;;;;3.20;3.00;;;11.90;58.50;;;;;;5023387;28;20046;-79
2024/01/20 03:57:50;;;;;;;3.08;2.88;;;11.90;58.70;;;;;;5021036;28;20049;-79
2024/01/20 04:00:16;;;;;;;3.22;3.03;;;11.90;58.60;;;;;;5023840;28;20484;-79
2024/01/20 04:02:41;;;;;;;3.03;2.83;;;11.90;58.60;;;;;;5026444;28;20049;-78
2024/01/20 04:05:07;;;;;;;2.78;2.67;;;11.90;58.50;;;;;;5023183;28;20136;-79
2024/01/20 04:07:33;;;;;;;3.60;3.30;;;11.90;58.50;;;;;;4978741;28;20053;-79
2024/01/20 04:09:59;;;;;;;3.65;3.35;;;11.90;58.50;;;;;;4987444;28;20050;-78
2024/01/20 04:12:25;;;;;;;2.92;2.72;;;11.90;58.60;;;;;;5008326;28;20045;-79
2024/01/20 04:14:50;;;;;;;2.92;2.72;;;11.90;58.50;;;;;;5021779;28;20034;-79
2024/01/20 04:17:16;;;;;;;3.10;2.90;;;11.90;58.60;;;;;;5025978;28;20523;-79
2024/01/20 04:19:41;;;;;;;3.60;3.40;;;11.90;58.60;;;;;;5013082;28;20095;-79
2024/01/20 04:22:07;;;;;;;3.17;2.92;;;11.90;59.10;;;;;;4999038;28;20445;-78
2024/01/20 04:24:32;;;;;;;3.03;2.83;;;11.90;58.60;;;;;;5007321;28;20037;-79
2024/01/20 04:26:58;;;;;;;3.05;2.78;;;11.90;58.70;;;;;;5023781;28;20034;-78
2024/01/20 04:29:24;;;;;;;2.92;2.72;;;11.90;58.70;;;;;;5022580;28;20180;-79
2024/01/20 04:31:49;;;;;;;3.05;2.85;;;11.90;58.50;;;;;;5026724;28;20161;-79
2024/01/20 04:34:15;;;;;;;3.08;2.88;;;11.90;58.50;;;;;;5022687;28;20045;-79
2024/01/20 04:36:40;;;;;;;3.13;2.92;;;11.90;58.60;;;;;;5022037;28;20036;-79
2024/01/20 04:39:06;;;;;;;3.00;2.80;;;11.90;58.70;;;;;;5020071;28;20500;-79
2024/01/20 04:41:31;;;;;;;2.85;2.65;;;11.90;59.10;;;;;;5024073;28;20045;-79
2024/01/20 04:43:57;;;;;;;3.28;3.08;;;11.90;58.60;;;;;;5023775;28;20057;-78
2024/01/20 04:46:22;;;;;;;3.25;3.05;;;11.90;58.60;;;;;;5025874;28;20123;-79
2024/01/20 04:48:48;;;;;;;3.10;2.80;;;11.80;58.60;;;;;;5023046;28;20514;-79
2024/01/20 04:51:13;;;;;;;2.70;2.60;;;11.90;58.50;;;;;;5023795;28;20522;-79
2024/01/20 04:53:39;;;;;;;2.70;2.60;;;11.90;58.40;;;;;;5024797;28;20431;-79
2024/01/20 04:56:05;;;;;;;2.95;2.75;;;11.90;58.50;;;;;;5025136;28;20034;-78
2024/01/20 04:58:31;;;;;;;3.30;3.10;;;11.90;58.60;;;;;;5020466;28;20041;-79
2024/01/20 05:00:57;;;;;;;3.05;2.85;;;11.80;58.50;;;;;;5023108;28;20414;-78
2024/01/20 05:03:22;;;;;;;2.80;2.63;;;11.80;59.10;;;;;;5020320;28;20037;-78
2024/01/20 05:05:48;;;;;;;3.03;2.83;;;11.80;59.20;;;;;;5023014;28;20041;-79
2024/01/20 05:08:13;;;;;;;2.67;2.58;;;11.80;58.40;;;;;;5024699;28;20083;-79
2024/01/20 05:10:39;;;;;;;3.05;2.85;;;11.80;58.50;;;;;;5021160;28;20033;-79
2024/01/20 05:13:04;;;;;;;3.42;3.22;;;11.80;58.40;;;;;;5021361;28;20061;-78
2024/01/20 05:15:30;;;;;;;3.08;2.88;;;11.80;58.50;;;;;;5005320;28;20042;-79
2024/01/20 05:17:56;;;;;;;3.10;2.90;;;11.80;58.50;;;;;;5020292;28;20041;-78
2024/01/20 05:20:22;;;;;;;2.80;2.60;;;11.80;58.50;;;;;;5008514;28;20109;-79
2024/01/20 05:22:48;;;;;;;3.03;2.83;;;11.80;58.40;;;;;;5005562;28;20026;-79
2024/01/20 05:25:14;;;;;;;3.03;2.90;;;11.80;58.40;;;;;;5022677;28;20040;-79
2024/01/20 05:27:39;;;;;;;2.90;2.70;;;11.80;58.40;;;;;;5024467;28;20165;-78
2024/01/20 05:30:06;;;;;;;2.92;2.72;;;11.80;58.40;;;;;;5023214;28;20192;-79
2024/01/20 05:32:31;;;;;;;2.75;2.60;;;11.80;58.40;;;;;;5023008;28;20033;-79
2024/01/20 05:34:57;;;;;;;3.17;2.97;;;11.80;58.50;;;;;;5026475;28;20443;-79
2024/01/20 05:37:22;;;;;;;2.60;2.50;;;11.80;58.40;;;;;;5024531;28;20097;-79
2024/01/20 05:39:48;;;;;;;3.20;3.00;;;11.80;58.60;;;;;;5022479;28;20507;-79
2024/01/20 05:42:14;;;;;;;3.00;2.80;;;11.80;58.40;;;;;;5020108;28;20053;-79
2024/01/20 05:44:40;;;;;;;2.65;2.55;;;11.80;58.40;;;;;;5000684;28;20035;-79
2024/01/20 05:47:05;;;;;;;2.83;2.63;;;11.80;58.60;;;;;;5003235;28;20636;-78
2024/01/20 05:49:31;;;;;;;2.75;2.65;;;11.80;58.60;;;;;;5001663;28;20412;-79
2024/01/20 05:51:56;;;;;;;2.65;2.55;;;11.80;59.10;;;;;;5011458;28;20064;-79
2024/01/20 05:54:22;;;;;;;2.90;2.70;;;11.80;58.60;;;;;;5006313;28;20034;-79
2024/01/20 05:56:47;;;;;;;3.10;2.90;;;11.80;58.40;;;;;;5018191;28;20053;-79
2024/01/20 05:59:13;;;;;;;2.90;2.70;;;11.80;58.40;;;;;;5023697;28;20049;-79
2024/01/20 06:01:38;;;;;;;2.85;2.65;;;11.80;58.40;;;;;;5020802;28;20587;-78
2024/01/20 06:04:04;;;;;;;2.85;2.65;;;11.80;58.40;;;;;;5005579;28;20068;-78
2024/01/20 06:06:30;;;;;;;2.90;2.72;;;11.80;58.40;;;;;;5004851;28;20071;-79
2024/01/20 06:08:55;;;;;;;2.58;2.47;;;11.70;58.40;;;;;;5019982;28;20174;-79
2024/01/20 06:11:23;;;;;;;2.63;2.50;;;11.70;58.50;;;;;;5023504;28;20569;-79
2024/01/20 06:13:49;;;;;;;3.17;2.97;;;11.70;58.00;;;;;;5022845;28;20034;-79
2024/01/20 06:16:15;;;;;;;2.80;2.70;;;11.80;58.50;;;;;;5019045;28;20041;-78
2024/01/20 06:18:40;;;;;;;2.78;2.60;;;11.80;58.60;;;;;;5020324;28;20030;-79
2024/01/20 06:21:06;;;;;;;3.08;2.80;;;11.70;59.10;;;;;;5018463;28;20042;-78
2024/01/20 06:23:31;;;;;;;2.50;2.40;;;11.70;58.40;;;;;;5023388;28;20033;-79
2024/01/20 06:25:59;;;;;;;2.67;2.53;;;11.70;58.50;;;;;;5012866;28;20076;-79
2024/01/20 06:28:25;;;;;;;2.72;2.60;;;11.70;58.40;;;;;;5021047;28;20495;-79
2024/01/20 06:30:51;;;;;;;2.85;2.70;;;11.70;59.00;;;;;;5022742;28;20057;-79
2024/01/20 06:33:16;;;;;;;2.88;2.67;;;11.70;58.30;;;;;;5021733;28;20065;-79
2024/01/20 06:35:42;;;;;;;2.50;2.40;;;11.70;58.60;;;;;;5005809;28;20046;-79
2024/01/20 06:38:08;;;;;;;2.80;2.60;;;11.70;58.40;;;;;;5022560;28;20538;-79
2024/01/20 06:40:33;;;;;;;2.50;2.40;;;11.70;58.40;;;;;;5022589;28;20049;-80
2024/01/20 06:42:59;;;;;;;2.80;2.60;;;11.70;58.40;;;;;;5004265;28;20380;-80
2024/01/20 06:45:24;;;;;;;2.50;2.30;;;11.70;58.40;;;;;;5004114;28;20048;-79
2024/01/20 06:47:50;;;;;;;2.50;2.30;;;11.70;58.40;;;;;;4991437;28;20073;-80
2024/01/20 06:50:16;;;;;;;2.50;2.40;;;11.70;58.50;;;;;;5006835;28;20049;-80
2024/01/20 06:52:41;;;;;;;2.67;2.47;;;11.70;58.40;;;;;;5007425;28;20049;-79
2024/01/20 06:55:07;;;;;;;1.88;1.77;;;11.70;58.30;;;;;;4999096;28;20041;-79
2024/01/20 06:57:33;;;;;;;2.40;2.30;;;11.70;58.40;;;;;;5010398;28;20049;-79
2024/01/20 06:59:58;;;;;;;2.67;2.47;;;11.70;58.40;;;;;;5028360;28;20036;-79
2024/01/20 07:02:24;;;;;;;2.20;2.10;;;11.70;58.40;;;;;;5023672;28;20076;-79
2024/01/20 07:04:49;;;;;;;2.42;2.25;;;11.70;58.30;;;;;;5023538;28;20392;-79
2024/01/20 07:07:15;;;;;;;2.40;2.30;;;11.70;58.20;;;;;;5019911;28;20387;-79
2024/01/20 07:09:41;;;;;;;2.10;2.00;;;11.70;58.30;;;;;;5027590;28;20099;-79
2024/01/20 07:12:07;;;;;;;2.70;2.50;;;11.70;58.40;;;;;;5022335;28;20424;-79
2024/01/20 07:14:33;;;;;;;2.55;2.35;;;11.60;58.40;;;;;;5009384;28;20049;-80
2024/01/20 07:16:58;;;;;;;2.15;2.05;;;11.70;58.40;;;;;;5042194;28;20638;-79
2024/01/20 07:19:24;;;;;;;2.35;2.25;;;11.70;58.50;;;;;;4991013;28;20044;-79
2024/01/20 07:21:49;;;;;;;2.40;2.30;;;11.70;59.10;;;;;;4995034;28;20069;-79
2024/01/20 07:24:15;;;;;;;2.60;2.40;;;11.70;59.00;;;;;;4997483;28;20057;-79
2024/01/20 07:26:40;;;;;;;2.40;2.30;;;11.70;58.40;;;;;;5008046;28;20537;-79
2024/01/20 07:29:06;;;;;;;2.42;2.33;;;11.60;58.20;;;;;;5000315;28;20108;-79
2024/01/20 07:31:32;;;;;;;2.83;2.63;;;11.60;58.20;;;;;;4986021;28;20030;-79
2024/01/20 07:33:58;;;;;;;2.47;2.28;;;11.70;58.30;;;;;;5005805;28;20512;-80
2024/01/20 07:36:23;;;;;;;2.60;2.40;;;11.60;58.30;;;;;;5021297;28;20049;-79
2024/01/20 07:38:49;;;;;;;2.10;2.00;;;11.60;58.20;;;;;;5023596;28;25379;-79
2024/01/20 07:41:14;;;;;;;2.58;2.47;;;11.60;58.20;;;;;;5010561;28;20114;-79
2024/01/20 07:43:40;;;;;;;2.30;2.20;;;11.60;58.60;;;;;;5002012;28;20046;-79
2024/01/20 07:46:07;;;;;;;2.25;2.15;;;11.60;58.10;;;;;;5002054;28;20084;-79
2024/01/20 07:48:33;;;;;;;2.20;2.10;;;11.60;58.20;;;;;;5019000;28;20057;-80
2024/01/20 07:50:58;;;;;;;2.15;2.05;;;11.60;58.30;;;;;;5006895;28;20753;-81
2024/01/20 07:53:24;;;;;;;2.58;2.47;;;11.60;58.20;;;;;;5004174;28;20397;-79
2024/01/20 07:55:50;;;;;;;2.42;2.33;;;11.60;58.20;;;;;;4996524;28;20592;-79
2024/01/20 07:58:15;;;;;;;2.40;2.20;;;11.70;58.30;;;;;;5006346;28;20042;-78
2024/01/20 08:00:41;;;;;;;2.95;2.75;;;11.60;58.80;;;;;;5023586;28;20519;-79
2024/01/20 08:03:06;;;;;;;2.30;2.20;;;11.60;58.20;;;;;;4995394;28;20408;-79
2024/01/20 08:05:32;;;;;;;2.38;2.20;;;11.60;58.20;;;;;;5024639;28;20479;-79
2024/01/20 08:07:58;;;;;;;2.17;2.08;;;11.60;58.30;;;;;;5026445;28;20041;-79
2024/01/20 08:10:23;;;;;;;2.30;2.10;;;11.60;58.20;;;;;;4998164;28;20042;-79
2024/01/20 08:12:51;;;;;;;2.30;2.20;;;11.60;58.30;;;;;;5024628;28;20050;-80
2024/01/20 08:15:16;;;;;;;2.30;2.20;;;11.60;58.20;;;;;;5024144;28;20255;-79
2024/01/20 08:17:42;;;;;;;2.20;2.10;;;11.60;58.30;;;;;;5009752;28;20084;-79
2024/01/20 08:20:08;;;;;;;2.25;2.15;;;11.60;58.90;;;;;;5043067;28;20080;-78
2024/01/20 08:22:34;;;;;;;2.35;2.25;;;11.60;58.30;;;;;;5001334;28;20579;-79
2024/01/20 08:25:02;;;;;;;2.22;2.13;;;11.60;58.30;;;;;;4989901;28;20112;-79
2024/01/20 08:27:28;;;;;;;2.17;2.08;;;11.60;58.20;;;;;;4993805;28;20050;-79
2024/01/20 08:29:54;;;;;;;2.20;2.10;;;11.60;58.50;;;;;;5006349;28;20084;-79
2024/01/20 08:32:19;;;;;;;2.05;1.95;;;11.60;58.20;;;;;;5040255;28;22061;-79
2024/01/20 08:34:45;;;;;;;2.25;2.15;;;11.60;58.30;;;;;;5010525;28;20068;-80
2024/01/20 08:37:11;;;;;;;2.20;2.10;;;11.60;58.10;;;;;;4992010;28;20568;-79
2024/01/20 08:39:36;;;;;;;1.90;1.80;;;11.60;58.20;;;;;;5005848;28;20148;-79
2024/01/20 08:42:03;;;;;;;2.28;2.17;;;11.60;58.10;;;;;;5022044;28;20042;-79
2024/01/20 08:44:30;;;;;;;2.05;1.95;;;11.60;58.40;;;;;;5005410;28;20038;-79
2024/01/20 08:46:55;;;;;;;2.08;1.98;;;11.60;58.10;;;;;;4990772;28;20073;-80
2024/01/20 08:49:22;;;;;;;2.28;2.17;;;11.60;58.20;;;;;;5006638;28;20064;-79
2024/01/20 08:51:47;;;;;;;2.20;2.00;;;11.60;58.20;;;;;;5014523;28;20775;-79
2024/01/20 08:54:13;;;;;;;2.03;1.92;;;11.60;58.80;;;;;;5007054;28;20053;-79
2024/01/20 08:56:38;;;;;;;1.95;1.85;;;11.60;58.20;;;;;;4977477;28;20087;-79
2024/01/20 08:59:04;;;;;;;2.03;1.92;;;11.60;58.30;;;;;;5021592;28;20029;-80
2024/01/20 09:01:29;;;;;;;1.90;1.80;;;11.60;58.10;;;;;;5023401;28;20486;-79
2024/01/20 09:03:55;;;;;;;1.75;1.65;;;11.60;58.30;;;;;;5006850;28;20476;-79
2024/01/20 09:06:21;;;;;;;1.95;1.85;;;11.60;58.20;;;;;;5022508;28;20045;-79
2024/01/20 09:08:46;;;;;;;2.20;2.10;;;11.60;58.20;;;;;;5006413;28;20034;-79
2024/01/20 09:11:12;;;;;;;2.63;2.42;;;11.60;58.10;;;;;;5005872;28;20042;-78
2024/01/20 09:13:37;;;;;;;2.40;2.30;;;11.60;58.20;;;;;;5021481;28;20048;-79
2024/01/20 09:16:03;;;;;;;2.20;2.10;;;11.60;58.30;;;;;;5007437;28;20065;-80
2024/01/20 09:18:29;;;;;;;2.45;2.35;;;11.50;58.20;;;;;;5020502;28;20419;-79
2024/01/20 09:20:54;;;;;;;2.28;2.17;;;11.60;58.40;;;;;;5023350;28;20061;-79
2024/01/20 09:23:20;;;;;;;2.17;2.08;;;11.50;58.10;;;;;;5007206;28;20047;-79
2024/01/20 09:25:46;;;;;;;2.03;1.92;;;11.50;58.10;;;;;;5019909;28;20515;-79
2024/01/20 09:28:11;;;;;;;2.25;2.15;;;11.60;58.10;;;;;;5021472;28;20045;-79
2024/01/20 09:30:37;;;;;;;2.20;2.10;;;11.60;58.10;;;;;;4990751;28;20109;-79
2024/01/20 09:33:06;;;;;;;2.20;2.10;;;11.60;58.10;;;;;;5007311;28;20041;-79
2024/01/20 09:35:32;;;;;;;1.90;1.80;;;11.60;58.80;;;;;;5003313;28;20038;-79
2024/01/20 09:37:57;;;;;;;2.95;2.70;;;11.60;58.70;;;;;;5021013;28;20049;-79
2024/01/20 09:40:23;;;;;;;2.10;2.00;;;11.60;58.20;;;;;;5020660;28;20069;-79
2024/01/20 09:42:48;;;;;;;2.20;2.10;;;11.60;58.30;;;;;;5007710;28;20103;-79
2024/01/20 09:45:14;;;;;;;2.10;2.00;;;11.60;58.20;;;;;;5006852;28;20041;-79
2024/01/20 09:47:40;;;;;;;2.10;2.00;;;11.60;58.10;;;;;;5002639;28;20100;-79
2024/01/20 09:50:06;;;;;;;2.63;2.50;;;11.60;58.20;;;;;;4981710;28;20049;-80
2024/01/20 09:52:31;;;;;;;2.17;2.08;;;11.60;58.20;;;;;;4989699;28;20096;-79
2024/01/20 09:55:02;;;;;;;2.13;2.03;;;11.60;58.30;;;;;;4989344;28;20508;-79
2024/01/20 09:57:27;;;;;;;1.92;1.83;;;11.60;58.20;;;;;;5019309;28;20045;-79
2024/01/20 09:59:53;;;;;;;2.30;2.20;;;11.60;58.20;;;;;;5022424;28;20442;-79
2024/01/20 10:02:18;;;;;;;2.40;2.20;;;11.60;58.20;;;;;;5024074;28;20053;-79
2024/01/20 10:04:44;;;;;;;2.17;2.08;;;11.60;58.10;;;;;;5007214;28;20136;-79
2024/01/20 10:07:10;;;;;;;2.03;1.92;;;11.60;58.20;;;;;;4992557;28;20041;-79
2024/01/20 10:09:37;;;;;;;1.90;1.80;;;11.60;58.10;;;;;;5018934;28;20386;-79
2024/01/20 10:12:02;;;;;;;2.40;2.30;;;11.60;58.30;;;;;;4992017;28;20053;-79
2024/01/20 10:14:28;;;;;;;2.00;1.90;;;11.60;58.20;;;;;;5002801;28;20046;-79
2024/01/20 10:16:54;;;;;;;2.03;1.92;;;11.60;58.20;;;;;;4985976;28;20042;-79
2024/01/20 10:19:19;;;;;;;2.10;2.00;;;11.60;58.10;;;;;;5001201;28;20053;-79
2024/01/20 10:21:45;;;;;;;2.00;1.90;;;11.60;58.20;;;;;;5005000;28;20050;-79
2024/01/20 10:24:11;;;;;;;2.03;1.92;;;11.60;58.10;;;;;;5023026;28;20038;-79
2024/01/20 10:26:43;;;;;;;1.90;1.80;;;11.60;58.10;;;;;;5020954;28;20053;-79
2024/01/20 10:29:09;;;;;;;2.00;1.90;;;11.70;58.30;;;;;;5026332;28;20045;-79
2024/01/20 10:31:35;;;;;;;2.58;2.40;;;11.70;58.20;;;;;;4992267;28;20042;-79
2024/01/20 10:34:01;;;;;;;2.13;2.03;;;11.70;58.20;;;;;;5022419;28;20644;-79
2024/01/20 10:36:27;;;;;;;2.22;2.13;;;11.70;58.30;;;;;;5027740;28;20073;-79
2024/01/20 10:38:52;;;;;;;2.17;2.08;;;11.70;58.30;;;;;;5025796;28;20050;-79
2024/01/20 10:41:19;;;;;;;1.92;1.83;;;11.70;58.20;;;;;;5027740;28;20115;-79
2024/01/20 10:43:48;;;;;;;2.05;1.95;;;11.70;58.20;;;;;;5049977;28;20072;-79
2024/01/20 10:46:24;;;;;;;1.95;1.85;;;11.80;58.20;;;;;;4996805;28;20045;-79
2024/01/20 10:48:52;;;;;;;2.22;2.13;;;11.70;58.10;;;;;;5051126;28;20511;-79
2024/01/20 10:51:22;;;;;;;2.08;1.98;;;11.70;58.10;;;;;;5057408;28;20084;-79
2024/01/20 10:53:48;;;;;;;1.90;1.80;;;11.80;58.20;;;;;;5006965;28;20107;-79
2024/01/20 10:56:13;;;;;;;2.00;1.90;;;11.80;58.20;;;;;;5012885;28;20041;-79
2024/01/20 10:58:41;;;;;;;1.85;1.75;;;11.70;58.10;;;;;;5019338;28;20038;-79
2024/01/20 11:01:06;;;;;;;1.90;1.80;;;11.80;58.20;;;;;;5008145;28;20515;-79
2024/01/20 11:03:32;;;;;;;1.98;1.88;;;11.80;58.20;;;;;;5024866;28;20052;-79
2024/01/20 11:05:57;;;;;;;2.38;2.17;;;11.80;59.10;;;;;;5026196;28;20049;-79
2024/01/20 11:08:24;;;;;;;2.20;2.10;;;11.80;58.00;;;;;;5008871;28;20039;-79
2024/01/20 11:10:51;;;;;;;2.42;2.33;;;11.80;58.50;;;;;;5026092;28;20033;-79
2024/01/20 11:13:16;;;;;;;1.83;1.73;;;11.80;58.00;;;;;;5006444;28;20041;-79
2024/01/20 11:15:47;;;;;;;1.95;1.85;;;11.80;58.20;;;;;;5011623;28;20042;-79
2024/01/20 11:18:20;;;;;;;1.90;1.80;;;11.90;58.20;;;;;;5022813;28;20196;-79
2024/01/20 11:20:56;;;;;;;1.67;1.58;;;11.80;58.50;;;;;;5001735;28;20049;-79
2024/01/20 11:23:22;;;;;;;2.08;1.98;;;11.90;58.30;;;;;;4991965;28;20618;-79
2024/01/20 11:25:47;;;;;;;1.85;1.75;;;11.90;58.40;;;;;;5027228;28;20041;-80
2024/01/20 11:28:23;;;;;;;2.00;1.90;;;11.80;58.10;;;;;;5023160;28;20052;-79
2024/01/20 11:30:48;;;;;;;1.80;1.70;;;11.90;58.10;;;;;;5014263;28;20503;-79
2024/01/20 11:33:15;;;;;;;1.85;1.75;;;11.90;58.20;;;;;;4993497;28;20048;-79
2024/01/20 11:35:41;;;;;;;1.90;1.80;;;11.90;58.20;;;;;;5003900;28;20596;-79
2024/01/20 11:38:06;;;;;;;2.03;1.92;;;11.90;58.30;;;;;;5011394;28;20045;-79
2024/01/20 11:40:32;;;;;;;1.73;1.63;;;11.90;58.20;;;;;;5007419;28;20103;-80
2024/01/20 11:43:05;;;;;;;1.80;1.70;;;11.90;58.10;;;;;;4994270;28;20411;-79
2024/01/20 11:45:31;;;;;;;1.90;1.80;;;11.90;57.90;;;;;;4998991;28;20125;-79
2024/01/20 11:47:56;;;;;;;2.03;1.92;;;12.00;58.00;;;;;;5025793;28;20148;-80
2024/01/20 11:50:22;;;;;;;1.65;1.55;;;12.00;58.00;;;;;;5026372;28;20069;-79
2024/01/20 11:52:48;;;;;;;1.80;1.70;;;12.00;58.30;;;;;;5025626;28;20053;-79
2024/01/20 11:55:13;;;;;;;2.00;1.90;;;12.00;58.20;;;;;;5023932;28;20530;-79
2024/01/20 11:57:39;;;;;;;1.85;1.75;;;12.00;58.40;;;;;;5022346;28;20136;-79
2024/01/20 12:00:06;;;;;;;1.80;1.70;;;12.00;58.50;;;;;;5023761;28;20045;-80
2024/01/20 12:02:31;;;;;;;2.08;1.98;;;12.00;58.30;;;;;;5023656;28;20053;-79
2024/01/20 12:04:57;;;;;;;1.65;1.55;;;12.00;58.40;;;;;;5025432;28;20052;-79
2024/01/20 12:07:23;;;;;;;1.55;1.45;;;12.00;58.60;;;;;;5023685;28;20107;-78
2024/01/20 12:09:48;;;;;;;1.60;1.50;;;12.00;58.00;;;;;;5010255;28;20033;-79
2024/01/20 12:12:14;;;;;;;2.05;1.95;;;12.00;58.10;;;;;;4995496;28;20076;-79
2024/01/20 12:14:44;;;;;;;1.75;1.65;;;12.00;58.10;;;;;;5022644;28;20050;-79
2024/01/20 12:17:13;;;;;;;1.55;1.45;;;12.10;58.60;;;;;;5025847;28;20199;-79
2024/01/20 12:19:39;;;;;;;1.60;1.50;;;12.10;58.00;;;;;;5022899;28;21692;-79
2024/01/20 12:22:12;;;;;;;1.98;1.88;;;12.20;57.80;;;;;;5006410;28;20576;-79
2024/01/20 12:24:37;;;;;;;1.60;1.50;;;12.20;57.60;;;;;;4987653;28;20057;-79
2024/01/20 12:27:06;;;;;;;1.48;1.45;;;12.20;57.50;;;;;;4992457;28;20037;-79
2024/01/20 12:29:32;;;;;;;1.55;1.45;;;12.20;58.20;;;;;;4996351;28;20145;-79
2024/01/20 12:31:58;;;;;;;1.45;1.42;;;12.20;57.60;;;;;;5009592;28;20120;-79
2024/01/20 12:34:26;;;;;;;1.80;1.70;;;12.20;58.40;;;;;;5035902;28;20137;-78
2024/01/20 12:36:53;;;;;;;1.10;1.10;;;12.20;57.40;;;;;;4995467;28;20096;-79
2024/01/20 12:39:19;;;;;;;1.75;1.65;;;12.20;57.50;;;;;;5017040;28;20042;-78
2024/01/20 12:41:45;;;;;;;1.40;1.30;;;12.20;57.30;;;;;;5005130;28;20049;-79